Holcomb, Illinois
Current Conditions -  °F | °C
As of 12:23 PM on Sunday 21 Dec 2014 (Local Time) from KRFD Reporting Station
Haze Haze  
Wind Chill: 27°   Ceiling: 1200
Heat Index: 36°   Visibility: 5mi
Dew Point: 31°   Wind: 15mph
Humidity: 82%   Direction: 170°S
Pressure: 30.1"   Gusts: NA
Location:  42.06°N, 89.1°W
Report Text: KRFD 211823Z 17013KT 5SM HZ BKN012 OVC035 02/M01 A3010 RMK AO2 T00221006
Loading
Personal Weather Stations






























Interactive Weather Map New forecast layout! Learn more

10-Day Weather Forecast

Advertisements
Track Severe Weather on mobile